Terminal Aerodrome Forecast
Issued by NWS

Home | Current Version | Previous Version | Text Only | Print | Product List | Glossary On
Versions: 1 2 3 4 5 6 7 8 9 10 11 12 13 14
000
FTUS43 KEAX 120520
TAFSTJ
TAF
KSTJ 120520Z 1206/1306 34012G22KT P6SM SKC
     FM120900 31009KT P6SM SKC
     FM122100 25006KT P6SM FEW200=

USA.gov is the U.S. government's official web portal to all federal, state and local government web resources and services.